sensor_id;sensor_type;location;lat;lon;timestamp;pressure;altitude;pressure_sealevel;temperature;humidity
72585;BME280;73873;40.084;32.908;2024-01-15T00:00:18;89384.22;;;-4.23;89.78
72585;BME280;73873;40.084;32.908;2024-01-15T00:02:47;89383.22;;;-4.37;91.27
72585;BME280;73873;40.084;32.908;2024-01-15T00:05:15;89371.63;;;-4.25;91.95
72585;BME280;73873;40.084;32.908;2024-01-15T00:07:42;89377.56;;;-4.24;92.38
72585;BME280;73873;40.084;32.908;2024-01-15T00:10:08;89371.94;;;-4.19;93.38
72585;BME280;73873;40.084;32.908;2024-01-15T00:12:35;89381.72;;;-3.89;90.73
72585;BME280;73873;40.084;32.908;2024-01-15T00:15:03;89386.34;;;-3.66;88.22
72585;BME280;73873;40.084;32.908;2024-01-15T00:17:30;89379.44;;;-3.46;86.36
72585;BME280;73873;40.084;32.908;2024-01-15T00:19:57;89377.72;;;-3.26;84.71
72585;BME280;73873;40.084;32.908;2024-01-15T00:22:25;89382.84;;;-3.19;83.79
72585;BME280;73873;40.084;32.908;2024-01-15T00:24:52;89382.84;;;-3.19;83.85
72585;BME280;73873;40.084;32.908;2024-01-15T00:27:19;89373.06;;;-3.79;87.17
72585;BME280;73873;40.084;32.908;2024-01-15T00:29:46;89370.09;;;-4.19;88.93
72585;BME280;73873;40.084;32.908;2024-01-15T00:32:13;89374.69;;;-4.37;91.35
72585;BME280;73873;40.084;32.908;2024-01-15T00:34:40;89378.78;;;-4.40;92.42
72585;BME280;73873;40.084;32.908;2024-01-15T00:37:07;89371.97;;;-4.23;91.46
72585;BME280;73873;40.084;32.908;2024-01-15T00:39:34;89371.75;;;-3.98;89.82
72585;BME280;73873;40.084;32.908;2024-01-15T00:42:01;89370.84;;;-3.77;88.29
72585;BME280;73873;40.084;32.908;2024-01-15T00:44:28;89371.50;;;-3.69;87.66
72585;BME280;73873;40.084;32.908;2024-01-15T00:46:54;89361.34;;;-3.57;86.60
72585;BME280;73873;40.084;32.908;2024-01-15T00:49:21;89367.47;;;-3.40;85.20
72585;BME280;73873;40.084;32.908;2024-01-15T00:51:49;89359.56;;;-3.33;84.72
72585;BME280;73873;40.084;32.908;2024-01-15T00:54:16;89363.69;;;-3.32;84.53
72585;BME280;73873;40.084;32.908;2024-01-15T00:56:43;89360.16;;;-3.18;83.60
72585;BME280;73873;40.084;32.908;2024-01-15T00:59:10;89376.44;;;-3.10;83.43
72585;BME280;73873;40.084;32.908;2024-01-15T01:01:37;89369.78;;;-3.15;84.20
72585;BME280;73873;40.084;32.908;2024-01-15T01:04:04;89380.38;;;-3.29;85.34
72585;BME280;73873;40.084;32.908;2024-01-15T01:06:31;89376.97;;;-3.23;85.43
72585;BME280;73873;40.084;32.908;2024-01-15T01:09:00;89370.50;;;-3.11;84.93
72585;BME280;73873;40.084;32.908;2024-01-15T01:11:27;89374.19;;;-3.08;84.81
72585;BME280;73873;40.084;32.908;2024-01-15T01:13:54;89365.19;;;-3.04;83.92
72585;BME280;73873;40.084;32.908;2024-01-15T01:16:21;89373.28;;;-2.95;83.38
72585;BME280;73873;40.084;32.908;2024-01-15T01:18:48;89373.88;;;-2.83;83.02
72585;BME280;73873;40.084;32.908;2024-01-15T01:21:16;89358.19;;;-2.80;82.61
72585;BME280;73873;40.084;32.908;2024-01-15T01:23:43;89361.09;;;-2.74;82.25
72585;BME280;73873;40.084;32.908;2024-01-15T01:26:10;89369.16;;;-2.65;81.75
72585;BME280;73873;40.084;32.908;2024-01-15T01:28:36;89373.56;;;-2.89;82.33
72585;BME280;73873;40.084;32.908;2024-01-15T01:31:03;89371.63;;;-3.12;83.30
72585;BME280;73873;40.084;32.908;2024-01-15T01:33:30;89359.88;;;-3.27;84.68
72585;BME280;73873;40.084;32.908;2024-01-15T01:35:57;89361.53;;;-3.40;85.76
72585;BME280;73873;40.084;32.908;2024-01-15T01:38:24;89362.44;;;-3.24;84.70
72585;BME280;73873;40.084;32.908;2024-01-15T01:40:51;89350.41;;;-3.10;83.69
72585;BME280;73873;40.084;32.908;2024-01-15T01:43:18;89363.59;;;-2.94;82.49
72585;BME280;73873;40.084;32.908;2024-01-15T01:45:45;89366.47;;;-2.89;82.12
72585;BME280;73873;40.084;32.908;2024-01-15T01:48:12;89360.28;;;-2.98;82.38
72585;BME280;73873;40.084;32.908;2024-01-15T01:50:40;89366.69;;;-3.06;82.71
72585;BME280;73873;40.084;32.908;2024-01-15T01:53:07;89373.38;;;-3.36;84.51
72585;BME280;73873;40.084;32.908;2024-01-15T01:55:34;89377.41;;;-3.65;88.62
72585;BME280;73873;40.084;32.908;2024-01-15T01:58:03;89366.56;;;-3.60;87.56
72585;BME280;73873;40.084;32.908;2024-01-15T02:00:32;89367.56;;;-3.51;87.08
72585;BME280;73873;40.084;32.908;2024-01-15T02:03:00;89371.34;;;-3.55;86.72
72585;BME280;73873;40.084;32.908;2024-01-15T02:05:27;89368.88;;;-3.66;88.08
72585;BME280;73873;40.084;32.908;2024-01-15T02:07:54;89372.84;;;-3.95;89.22
72585;BME280;73873;40.084;32.908;2024-01-15T02:10:21;89361.09;;;-3.69;87.85
72585;BME280;73873;40.084;32.908;2024-01-15T02:12:48;89363.53;;;-3.55;86.47
72585;BME280;73873;40.084;32.908;2024-01-15T02:15:15;89348.66;;;-3.55;86.38
72585;BME280;73873;40.084;32.908;2024-01-15T02:20:26;89360.97;;;-3.25;84.35
72585;BME280;73873;40.084;32.908;2024-01-15T02:22:53;89365.22;;;-3.38;85.05
72585;BME280;73873;40.084;32.908;2024-01-15T02:25:20;89362.28;;;-3.40;85.53
72585;BME280;73873;40.084;32.908;2024-01-15T02:27:47;89361.06;;;-3.32;84.56
72585;BME280;73873;40.084;32.908;2024-01-15T02:36:25;89363.84;;;-3.84;87.63
72585;BME280;73873;40.084;32.908;2024-01-15T02:38:52;89362.13;;;-3.63;86.33
72585;BME280;73873;40.084;32.908;2024-01-15T02:41:19;89357.72;;;-3.66;86.38
72585;BME280;73873;40.084;32.908;2024-01-15T02:43:46;89366.38;;;-3.77;87.26
72585;BME280;73873;40.084;32.908;2024-01-15T02:49:26;89363.16;;;-3.91;88.98
72585;BME280;73873;40.084;32.908;2024-01-15T02:51:53;89367.75;;;-4.06;89.15
72585;BME280;73873;40.084;32.908;2024-01-15T02:54:20;89367.03;;;-4.10;90.03
72585;BME280;73873;40.084;32.908;2024-01-15T02:56:47;89372.19;;;-4.03;90.16
72585;BME280;73873;40.084;32.908;2024-01-15T02:59:14;89369.78;;;-3.87;88.89
72585;BME280;73873;40.084;32.908;2024-01-15T03:01:41;89371.56;;;-3.77;87.84
72585;BME280;73873;40.084;32.908;2024-01-15T03:04:08;89380.97;;;-3.90;88.02
72585;BME280;73873;40.084;32.908;2024-01-15T03:06:35;89374.19;;;-3.77;87.22
72585;BME280;73873;40.084;32.908;2024-01-15T03:09:02;89373.34;;;-3.66;86.18
72585;BME280;73873;40.084;32.908;2024-01-15T03:11:28;89380.97;;;-3.90;87.98
72585;BME280;73873;40.084;32.908;2024-01-15T03:13:55;89373.69;;;-4.06;89.24
72585;BME280;73873;40.084;32.908;2024-01-15T03:16:22;89379.66;;;-4.09;89.59
72585;BME280;73873;40.084;32.908;2024-01-15T03:18:49;89380.00;;;-4.03;88.94
72585;BME280;73873;40.084;32.908;2024-01-15T03:21:16;89388.44;;;-3.92;88.46
72585;BME280;73873;40.084;32.908;2024-01-15T03:23:43;89387.31;;;-3.91;87.90
72585;BME280;73873;40.084;32.908;2024-01-15T03:26:10;89387.25;;;-3.84;87.49
72585;BME280;73873;40.084;32.908;2024-01-15T03:28:37;89388.28;;;-3.74;86.69
72585;BME280;73873;40.084;32.908;2024-01-15T03:31:04;89388.94;;;-3.66;85.77
72585;BME280;73873;40.084;32.908;2024-01-15T03:33:31;89389.63;;;-3.62;84.96
72585;BME280;73873;40.084;32.908;2024-01-15T03:35:58;89392.53;;;-3.53;84.82
72585;BME280;73873;40.084;32.908;2024-01-15T03:38:28;89400.66;;;-3.48;84.24
72585;BME280;73873;40.084;32.908;2024-01-15T03:40:55;89394.66;;;-3.41;83.93
72585;BME280;73873;40.084;32.908;2024-01-15T03:43:22;89401.31;;;-3.40;83.78
72585;BME280;73873;40.084;32.908;2024-01-15T03:45:49;89396.81;;;-3.36;83.58
72585;BME280;73873;40.084;32.908;2024-01-15T03:48:16;89402.00;;;-3.36;83.06
72585;BME280;73873;40.084;32.908;2024-01-15T03:50:43;89404.28;;;-3.38;83.28
72585;BME280;73873;40.084;32.908;2024-01-15T03:53:10;89408.69;;;-3.35;83.59
72585;BME280;73873;40.084;32.908;2024-01-15T03:55:36;89411.91;;;-3.24;82.84
72585;BME280;73873;40.084;32.908;2024-01-15T03:58:03;89410.75;;;-3.19;82.73
72585;BME280;73873;40.084;32.908;2024-01-15T04:00:30;89412.19;;;-3.15;82.76
72585;BME280;73873;40.084;32.908;2024-01-15T04:02:57;89408.44;;;-3.10;82.41
72585;BME280;73873;40.084;32.908;2024-01-15T04:05:25;89406.88;;;-3.04;82.77
72585;BME280;73873;40.084;32.908;2024-01-15T04:07:52;89411.34;;;-3.04;82.01
72585;BME280;73873;40.084;32.908;2024-01-15T04:10:19;89416.50;;;-3.01;81.71
72585;BME280;73873;40.084;32.908;2024-01-15T04:12:46;89425.50;;;-3.05;81.79
72585;BME280;73873;40.084;32.908;2024-01-15T04:15:13;89420.00;;;-3.15;82.38
72585;BME280;73873;40.084;32.908;2024-01-15T04:17:40;89419.53;;;-3.06;82.62
72585;BME280;73873;40.084;32.908;2024-01-15T04:20:07;89416.13;;;-2.99;82.20
72585;BME280;73873;40.084;32.908;2024-01-15T04:22:35;89420.91;;;-2.94;82.03
72585;BME280;73873;40.084;32.908;2024-01-15T04:25:03;89421.56;;;-2.87;81.78
72585;BME280;73873;40.084;32.908;2024-01-15T04:27:30;89417.84;;;-2.89;81.36
72585;BME280;73873;40.084;32.908;2024-01-15T04:29:57;89426.19;;;-3.01;82.21
72585;BME280;73873;40.084;32.908;2024-01-15T04:32:23;89422.53;;;-3.07;82.43
72585;BME280;73873;40.084;32.908;2024-01-15T04:34:50;89424.41;;;-3.08;82.16
72585;BME280;73873;40.084;32.908;2024-01-15T04:37:17;89437.84;;;-3.47;83.87
72585;BME280;73873;40.084;32.908;2024-01-15T04:39:44;89437.66;;;-3.71;87.02
72585;BME280;73873;40.084;32.908;2024-01-15T04:42:11;89439.69;;;-3.48;85.30
72585;BME280;73873;40.084;32.908;2024-01-15T04:44:38;89436.94;;;-3.33;84.35
72585;BME280;73873;40.084;32.908;2024-01-15T04:47:05;89443.00;;;-3.44;84.59
72585;BME280;73873;40.084;32.908;2024-01-15T04:49:32;89436.00;;;-3.50;84.90
72585;BME280;73873;40.084;32.908;2024-01-15T04:51:59;89428.03;;;-3.36;84.23
72585;BME280;73873;40.084;32.908;2024-01-15T04:54:26;89432.00;;;-3.58;85.98
72585;BME280;73873;40.084;32.908;2024-01-15T04:56:53;89436.47;;;-3.62;86.23
72585;BME280;73873;40.084;32.908;2024-01-15T04:59:20;89428.44;;;-3.79;86.81
72585;BME280;73873;40.084;32.908;2024-01-15T05:01:48;89429.56;;;-3.76;87.13
72585;BME280;73873;40.084;32.908;2024-01-15T05:04:15;89435.59;;;-3.90;87.85
72585;BME280;73873;40.084;32.908;2024-01-15T05:06:42;89433.88;;;-4.07;87.59
72585;BME280;73873;40.084;32.908;2024-01-15T05:09:09;89424.69;;;-4.22;90.14
72585;BME280;73873;40.084;32.908;2024-01-15T05:11:36;89436.09;;;-4.06;89.03
72585;BME280;73873;40.084;32.908;2024-01-15T05:14:03;89436.59;;;-4.21;89.57
72585;BME280;73873;40.084;32.908;2024-01-15T05:16:29;89422.44;;;-4.17;90.04
72585;BME280;73873;40.084;32.908;2024-01-15T05:18:56;89433.31;;;-4.33;92.02
72585;BME280;73873;40.084;32.908;2024-01-15T05:21:23;89440.06;;;-3.90;91.26
72585;BME280;73873;40.084;32.908;2024-01-15T05:23:50;89440.94;;;-3.63;90.22
72585;BME280;73873;40.084;32.908;2024-01-15T05:26:17;89438.50;;;-3.39;90.38
72585;BME280;73873;40.084;32.908;2024-01-15T05:28:44;89433.03;;;-3.15;90.53
72585;BME280;73873;40.084;32.908;2024-01-15T05:31:11;89452.16;;;-2.94;90.51
72585;BME280;73873;40.084;32.908;2024-01-15T05:33:38;89450.31;;;-2.97;90.35
72585;BME280;73873;40.084;32.908;2024-01-15T05:36:06;89449.44;;;-3.18;87.35
72585;BME280;73873;40.084;32.908;2024-01-15T05:38:33;89454.81;;;-3.32;87.08
72585;BME280;73873;40.084;32.908;2024-01-15T05:41:00;89457.53;;;-3.08;86.21
72585;BME280;73873;40.084;32.908;2024-01-15T05:43:27;89463.88;;;-2.79;85.68
72585;BME280;73873;40.084;32.908;2024-01-15T05:45:53;89461.72;;;-2.53;84.53
72585;BME280;73873;40.084;32.908;2024-01-15T05:48:20;89462.84;;;-2.54;83.91
72585;BME280;73873;40.084;32.908;2024-01-15T05:50:47;89464.25;;;-2.46;84.82
72585;BME280;73873;40.084;32.908;2024-01-15T05:53:14;89467.69;;;-2.53;86.70
72585;BME280;73873;40.084;32.908;2024-01-15T05:55:41;89470.00;;;-2.93;85.59
72585;BME280;73873;40.084;32.908;2024-01-15T05:58:08;89483.63;;;-3.16;86.42
72585;BME280;73873;40.084;32.908;2024-01-15T06:00:35;89480.69;;;-3.18;90.58
72585;BME280;73873;40.084;32.908;2024-01-15T06:03:02;89482.97;;;-3.23;91.38
72585;BME280;73873;40.084;32.908;2024-01-15T06:05:29;89483.44;;;-3.32;91.32
72585;BME280;73873;40.084;32.908;2024-01-15T06:07:56;89490.41;;;-3.25;92.18
72585;BME280;73873;40.084;32.908;2024-01-15T06:10:23;89488.09;;;-3.12;93.49
72585;BME280;73873;40.084;32.908;2024-01-15T06:12:50;89489.78;;;-2.95;93.39
72585;BME280;73873;40.084;32.908;2024-01-15T06:15:17;89491.41;;;-2.74;93.93
72585;BME280;73873;40.084;32.908;2024-01-15T06:17:44;89490.50;;;-2.61;93.18
72585;BME280;73873;40.084;32.908;2024-01-15T06:20:11;89497.06;;;-2.49;92.83
72585;BME280;73873;40.084;32.908;2024-01-15T06:22:38;89499.38;;;-2.24;93.38
72585;BME280;73873;40.084;32.908;2024-01-15T06:25:08;89491.34;;;-2.10;90.91
72585;BME280;73873;40.084;32.908;2024-01-15T06:27:35;89499.38;;;-1.97;90.68
72585;BME280;73873;40.084;32.908;2024-01-15T06:30:02;89500.84;;;-2.23;88.78
72585;BME280;73873;40.084;32.908;2024-01-15T06:32:29;89503.44;;;-2.23;91.82
72585;BME280;73873;40.084;32.908;2024-01-15T06:34:56;89497.75;;;-2.45;89.75
72585;BME280;73873;40.084;32.908;2024-01-15T06:37:23;89507.09;;;-2.47;89.00
72585;BME280;73873;40.084;32.908;2024-01-15T06:39:50;89505.53;;;-2.41;90.61
72585;BME280;73873;40.084;32.908;2024-01-15T06:42:17;89508.94;;;-2.17;90.59
72585;BME280;73873;40.084;32.908;2024-01-15T06:44:44;89503.88;;;-2.01;90.74
72585;BME280;73873;40.084;32.908;2024-01-15T06:47:11;89511.03;;;-1.78;89.84
72585;BME280;73873;40.084;32.908;2024-01-15T06:49:38;89507.69;;;-1.55;89.74
72585;BME280;73873;40.084;32.908;2024-01-15T06:52:05;89502.53;;;-1.35;87.63
72585;BME280;73873;40.084;32.908;2024-01-15T06:54:32;89497.59;;;-1.30;85.97
72585;BME280;73873;40.084;32.908;2024-01-15T06:56:59;89506.50;;;-1.27;85.03
72585;BME280;73873;40.084;32.908;2024-01-15T06:59:26;89510.63;;;-1.50;84.92
72585;BME280;73873;40.084;32.908;2024-01-15T07:01:53;89514.41;;;-1.54;84.07
72585;BME280;73873;40.084;32.908;2024-01-15T07:04:20;89515.88;;;-1.53;84.84
72585;BME280;73873;40.084;32.908;2024-01-15T07:06:47;89521.06;;;-1.50;85.00
72585;BME280;73873;40.084;32.908;2024-01-15T07:09:14;89523.34;;;-1.52;85.22
72585;BME280;73873;40.084;32.908;2024-01-15T07:11:44;89526.28;;;-1.50;84.74
72585;BME280;73873;40.084;32.908;2024-01-15T07:14:11;89521.19;;;-1.33;86.85
72585;BME280;73873;40.084;32.908;2024-01-15T07:16:38;89520.97;;;-0.99;85.50
72585;BME280;73873;40.084;32.908;2024-01-15T07:19:08;89516.69;;;-0.66;83.17
72585;BME280;73873;40.084;32.908;2024-01-15T07:21:35;89518.69;;;-0.54;80.85
72585;BME280;73873;40.084;32.908;2024-01-15T07:24:02;89525.00;;;-0.71;79.86
72585;BME280;73873;40.084;32.908;2024-01-15T07:26:30;89514.72;;;-0.82;80.32
72585;BME280;73873;40.084;32.908;2024-01-15T07:28:57;89515.53;;;-1.08;81.29
72585;BME280;73873;40.084;32.908;2024-01-15T07:31:24;89511.53;;;-1.13;82.54
72585;BME280;73873;40.084;32.908;2024-01-15T07:33:51;89521.97;;;-1.13;81.45
72585;BME280;73873;40.084;32.908;2024-01-15T07:36:18;89521.06;;;-1.03;81.99
72585;BME280;73873;40.084;32.908;2024-01-15T07:38:45;89518.63;;;-0.70;83.46
72585;BME280;73873;40.084;32.908;2024-01-15T07:41:13;89526.59;;;-0.58;80.41
72585;BME280;73873;40.084;32.908;2024-01-15T07:43:40;89516.88;;;-0.37;80.49
72585;BME280;73873;40.084;32.908;2024-01-15T07:46:07;89524.84;;;-0.64;80.34
72585;BME280;73873;40.084;32.908;2024-01-15T07:48:34;89540.81;;;-0.78;80.74
72585;BME280;73873;40.084;32.908;2024-01-15T07:51:01;89541.22;;;-1.03;80.96
72585;BME280;73873;40.084;32.908;2024-01-15T07:53:28;89544.34;;;-0.89;82.57
72585;BME280;73873;40.084;32.908;2024-01-15T07:55:55;89533.97;;;-0.72;82.07
72585;BME280;73873;40.084;32.908;2024-01-15T07:58:22;89540.94;;;-0.46;81.98
72585;BME280;73873;40.084;32.908;2024-01-15T08:00:49;89535.50;;;-0.55;79.94
72585;BME280;73873;40.084;32.908;2024-01-15T08:03:16;89540.78;;;-0.35;80.40
72585;BME280;73873;40.084;32.908;2024-01-15T08:05:43;89539.75;;;-0.21;78.51
72585;BME280;73873;40.084;32.908;2024-01-15T08:08:10;89540.53;;;-0.05;79.12
72585;BME280;73873;40.084;32.908;2024-01-15T08:10:37;89537.88;;;0.15;79.22
72585;BME280;73873;40.084;32.908;2024-01-15T08:13:04;89536.13;;;0.28;77.94
72585;BME280;73873;40.084;32.908;2024-01-15T08:15:31;89543.56;;;0.30;78.16
72585;BME280;73873;40.084;32.908;2024-01-15T08:17:58;89532.41;;;0.26;77.42
72585;BME280;73873;40.084;32.908;2024-01-15T08:20:26;89534.00;;;0.40;78.26
72585;BME280;73873;40.084;32.908;2024-01-15T08:22:53;89520.78;;;0.63;76.59
72585;BME280;73873;40.084;32.908;2024-01-15T08:25:20;89524.41;;;0.33;75.25
72585;BME280;73873;40.084;32.908;2024-01-15T08:27:47;89519.94;;;0.50;77.33
72585;BME280;73873;40.084;32.908;2024-01-15T08:30:14;89525.78;;;0.74;74.61
72585;BME280;73873;40.084;32.908;2024-01-15T08:32:41;89524.38;;;1.02;75.01
72585;BME280;73873;40.084;32.908;2024-01-15T08:35:09;89527.28;;;1.20;73.14
72585;BME280;73873;40.084;32.908;2024-01-15T08:37:37;89517.53;;;1.50;71.70
72585;BME280;73873;40.084;32.908;2024-01-15T08:40:05;89511.63;;;1.62;72.09
72585;BME280;73873;40.084;32.908;2024-01-15T08:42:32;89530.31;;;1.64;72.91
72585;BME280;73873;40.084;32.908;2024-01-15T08:44:59;89519.38;;;1.36;72.38
72585;BME280;73873;40.084;32.908;2024-01-15T08:47:26;89522.66;;;1.40;72.54
72585;BME280;73873;40.084;32.908;2024-01-15T08:49:53;89505.25;;;1.47;71.74
72585;BME280;73873;40.084;32.908;2024-01-15T08:52:20;89481.72;;;1.72;72.53
72585;BME280;73873;40.084;32.908;2024-01-15T08:54:47;89491.13;;;1.98;71.35
72585;BME280;73873;40.084;32.908;2024-01-15T08:57:14;89484.09;;;2.21;70.31
72585;BME280;73873;40.084;32.908;2024-01-15T08:59:41;89482.28;;;2.05;69.16
72585;BME280;73873;40.084;32.908;2024-01-15T09:02:08;89472.38;;;1.96;70.93
72585;BME280;73873;40.084;32.908;2024-01-15T09:04:35;89476.81;;;1.99;69.99
72585;BME280;73873;40.084;32.908;2024-01-15T09:07:02;89476.50;;;2.10;70.76
72585;BME280;73873;40.084;32.908;2024-01-15T09:09:29;89476.63;;;2.32;69.82
72585;BME280;73873;40.084;32.908;2024-01-15T09:11:56;89472.22;;;2.29;70.68
72585;BME280;73873;40.084;32.908;2024-01-15T09:14:23;89457.16;;;2.55;69.64
72585;BME280;73873;40.084;32.908;2024-01-15T09:17:04;89452.38;;;2.88;66.82
72585;BME280;73873;40.084;32.908;2024-01-15T09:19:31;89443.78;;;2.75;66.62
72585;BME280;73873;40.084;32.908;2024-01-15T09:21:59;89427.81;;;2.56;67.91
72585;BME280;73873;40.084;32.908;2024-01-15T09:24:26;89434.34;;;2.65;68.58
72585;BME280;73873;40.084;32.908;2024-01-15T09:26:55;89429.78;;;2.78;67.56
72585;BME280;73873;40.084;32.908;2024-01-15T09:29:22;89431.91;;;3.05;66.85
72585;BME280;73873;40.084;32.908;2024-01-15T09:31:50;89433.56;;;3.11;66.49
72585;BME280;73873;40.084;32.908;2024-01-15T09:34:18;89427.00;;;2.94;65.68
72585;BME280;73873;40.084;32.908;2024-01-15T09:36:45;89422.81;;;2.97;66.85
72585;BME280;73873;40.084;32.908;2024-01-15T09:39:12;89422.38;;;2.98;67.38
72585;BME280;73873;40.084;32.908;2024-01-15T09:41:39;89410.19;;;3.13;67.32
72585;BME280;73873;40.084;32.908;2024-01-15T09:44:07;89412.41;;;3.59;66.92
72585;BME280;73873;40.084;32.908;2024-01-15T09:46:35;89404.88;;;4.01;66.91
72585;BME280;73873;40.084;32.908;2024-01-15T09:49:02;89401.06;;;4.02;63.00
72585;BME280;73873;40.084;32.908;2024-01-15T09:51:31;89402.53;;;4.03;62.75
72585;BME280;73873;40.084;32.908;2024-01-15T09:53:58;89394.78;;;3.99;62.19
72585;BME280;73873;40.084;32.908;2024-01-15T09:56:25;89396.59;;;3.81;62.70
72585;BME280;73873;40.084;32.908;2024-01-15T09:58:53;89386.09;;;3.90;61.99
72585;BME280;73873;40.084;32.908;2024-01-15T10:01:20;89391.19;;;4.15;62.09
72585;BME280;73873;40.084;32.908;2024-01-15T10:03:48;89381.81;;;4.14;61.04
72585;BME280;73873;40.084;32.908;2024-01-15T10:06:17;89374.72;;;4.02;60.59
72585;BME280;73873;40.084;32.908;2024-01-15T10:08:50;89377.84;;;3.79;62.48
72585;BME280;73873;40.084;32.908;2024-01-15T10:11:17;89360.66;;;3.96;61.89
72585;BME280;73873;40.084;32.908;2024-01-15T10:13:45;89371.28;;;4.14;61.84
72585;BME280;73873;40.084;32.908;2024-01-15T10:16:15;89355.72;;;4.07;60.90
72585;BME280;73873;40.084;32.908;2024-01-15T10:18:42;89361.06;;;4.25;61.87
72585;BME280;73873;40.084;32.908;2024-01-15T10:21:10;89348.34;;;4.42;59.93
72585;BME280;73873;40.084;32.908;2024-01-15T10:23:37;89348.66;;;4.53;60.90
72585;BME280;73873;40.084;32.908;2024-01-15T10:26:04;89344.28;;;4.60;59.92
72585;BME280;73873;40.084;32.908;2024-01-15T10:28:33;89336.50;;;4.65;59.87
72585;BME280;73873;40.084;32.908;2024-01-15T10:31:01;89342.66;;;4.53;60.96
72585;BME280;73873;40.084;32.908;2024-01-15T10:33:28;89336.50;;;4.56;60.54
72585;BME280;73873;40.084;32.908;2024-01-15T10:35:57;89337.56;;;4.68;59.81
72585;BME280;73873;40.084;32.908;2024-01-15T10:38:25;89334.75;;;4.71;58.99
72585;BME280;73873;40.084;32.908;2024-01-15T10:40:56;89332.13;;;4.90;58.34
72585;BME280;73873;40.084;32.908;2024-01-15T10:43:23;89327.31;;;4.97;57.61
72585;BME280;73873;40.084;32.908;2024-01-15T10:45:54;89328.59;;;4.83;58.09
72585;BME280;73873;40.084;32.908;2024-01-15T10:48:22;89328.47;;;4.87;58.16
72585;BME280;73873;40.084;32.908;2024-01-15T10:50:49;89328.47;;;4.87;58.12
72585;BME280;73873;40.084;32.908;2024-01-15T10:53:17;89318.94;;;4.80;59.17
72585;BME280;73873;40.084;32.908;2024-01-15T10:55:46;89318.78;;;4.84;59.04
72585;BME280;73873;40.084;32.908;2024-01-15T10:58:14;89327.88;;;4.83;58.92
72585;BME280;73873;40.084;32.908;2024-01-15T11:00:43;89340.63;;;4.84;59.35
72585;BME280;73873;40.084;32.908;2024-01-15T11:03:11;89328.03;;;4.79;60.12
72585;BME280;73873;40.084;32.908;2024-01-15T11:05:44;89330.06;;;4.84;60.41
72585;BME280;73873;40.084;32.908;2024-01-15T11:08:12;89335.06;;;4.73;59.30
72585;BME280;73873;40.084;32.908;2024-01-15T11:10:47;89316.00;;;4.78;60.58
72585;BME280;73873;40.084;32.908;2024-01-15T11:16:03;89319.22;;;4.55;61.37
72585;BME280;73873;40.084;32.908;2024-01-15T11:18:36;89320.94;;;4.31;61.64
72585;BME280;73873;40.084;32.908;2024-01-15T11:29:02;89316.25;;;4.35;63.72
72585;BME280;73873;40.084;32.908;2024-01-15T11:34:16;89316.00;;;4.42;63.52
72585;BME280;73873;40.084;32.908;2024-01-15T11:42:01;89312.44;;;4.36;64.21
72585;BME280;73873;40.084;32.908;2024-01-15T11:44:29;89316.25;;;4.35;65.06
72585;BME280;73873;40.084;32.908;2024-01-15T11:52:20;89321.06;;;4.27;64.01
72585;BME280;73873;40.084;32.908;2024-01-15T11:55:11;89319.47;;;4.30;64.31
72585;BME280;73873;40.084;32.908;2024-01-15T11:57:42;89319.63;;;4.26;64.05
72585;BME280;73873;40.084;32.908;2024-01-15T12:00:10;89321.22;;;4.23;64.24
72585;BME280;73873;40.084;32.908;2024-01-15T12:02:39;89321.78;;;4.18;64.80
72585;BME280;73873;40.084;32.908;2024-01-15T12:05:13;89322.97;;;4.26;65.47
72585;BME280;73873;40.084;32.908;2024-01-15T12:07:45;89322.81;;;4.21;63.98
72585;BME280;73873;40.084;32.908;2024-01-15T12:10:18;89334.22;;;4.18;64.31
72585;BME280;73873;40.084;32.908;2024-01-15T12:12:58;89331.88;;;4.20;64.44
72585;BME280;73873;40.084;32.908;2024-01-15T12:15:27;89329.69;;;4.18;63.62
72585;BME280;73873;40.084;32.908;2024-01-15T12:17:56;89328.50;;;4.10;63.83
72585;BME280;73873;40.084;32.908;2024-01-15T12:20:24;89320.31;;;4.17;62.81
72585;BME280;73873;40.084;32.908;2024-01-15T12:22:51;89308.91;;;4.20;63.63
72585;BME280;73873;40.084;32.908;2024-01-15T12:25:29;89312.28;;;4.30;62.36
72585;BME280;73873;40.084;32.908;2024-01-15T12:27:56;89299.13;;;4.39;61.88
72585;BME280;73873;40.084;32.908;2024-01-15T12:30:26;89298.38;;;4.39;61.41
72585;BME280;73873;40.084;32.908;2024-01-15T12:32:54;89304.97;;;4.34;61.56
72585;BME280;73873;40.084;32.908;2024-01-15T12:35:23;89303.97;;;4.32;62.47
72585;BME280;73873;40.084;32.908;2024-01-15T12:37:51;89306.72;;;4.28;61.39
72585;BME280;73873;40.084;32.908;2024-01-15T12:40:21;89309.81;;;4.26;61.64
72585;BME280;73873;40.084;32.908;2024-01-15T12:42:48;89313.00;;;4.21;61.67
72585;BME280;73873;40.084;32.908;2024-01-15T12:45:15;89325.59;;;4.17;61.24
72585;BME280;73873;40.084;32.908;2024-01-15T12:47:42;89307.16;;;4.17;62.06
72585;BME280;73873;40.084;32.908;2024-01-15T12:50:11;89302.59;;;4.18;61.56
72585;BME280;73873;40.084;32.908;2024-01-15T12:52:45;89316.81;;;4.20;61.16
72585;BME280;73873;40.084;32.908;2024-01-15T12:55:13;89322.41;;;4.22;61.94
72585;BME280;73873;40.084;32.908;2024-01-15T12:57:41;89326.63;;;4.20;63.07
72585;BME280;73873;40.084;32.908;2024-01-15T13:00:08;89317.97;;;4.19;61.76
72585;BME280;73873;40.084;32.908;2024-01-15T13:02:35;89314.75;;;4.15;62.31
72585;BME280;73873;40.084;32.908;2024-01-15T13:05:03;89317.97;;;4.10;62.53
72585;BME280;73873;40.084;32.908;2024-01-15T13:07:31;89329.38;;;4.07;62.94
72585;BME280;73873;40.084;32.908;2024-01-15T13:09:59;89323.38;;;4.07;62.93
72585;BME280;73873;40.084;32.908;2024-01-15T13:12:26;89331.41;;;4.03;62.60
72585;BME280;73873;40.084;32.908;2024-01-15T13:14:53;89341.06;;;3.97;63.21
72585;BME280;73873;40.084;32.908;2024-01-15T13:17:20;89340.00;;;3.94;64.29
72585;BME280;73873;40.084;32.908;2024-01-15T13:19:48;89328.44;;;3.92;63.83
72585;BME280;73873;40.084;32.908;2024-01-15T13:22:15;89339.13;;;3.88;64.74
72585;BME280;73873;40.084;32.908;2024-01-15T13:24:43;89342.59;;;3.85;64.88
72585;BME280;73873;40.084;32.908;2024-01-15T13:27:10;89346.56;;;3.81;65.32
72585;BME280;73873;40.084;32.908;2024-01-15T13:29:37;89342.44;;;3.80;65.17